sensor_id;sensor_type;location;lat;lon;timestamp;temperature;humidity
22319;DHT22;11327;52.334;9.506;2022-08-21T00:00:47;17.10;99.90
22319;DHT22;11327;52.334;9.506;2022-08-21T00:04:10;17.10;99.90
22319;DHT22;11327;52.334;9.506;2022-08-21T00:07:31;17.00;99.90
22319;DHT22;11327;52.334;9.506;2022-08-21T00:10:53;17.00;99.90
22319;DHT22;11327;52.334;9.506;2022-08-21T00:14:14;16.90;99.90
22319;DHT22;11327;52.334;9.506;2022-08-21T00:17:36;16.90;99.90
22319;DHT22;11327;52.334;9.506;2022-08-21T00:20:57;16.90;99.90
22319;DHT22;11327;52.334;9.506;2022-08-21T00:24:20;16.90;99.90
22319;DHT22;11327;52.334;9.506;2022-08-21T00:27:42;16.90;99.90
22319;DHT22;11327;52.334;9.506;2022-08-21T00:31:03;16.80;99.90
22319;DHT22;11327;52.334;9.506;2022-08-21T00:34:24;16.80;99.90
22319;DHT22;11327;52.334;9.506;2022-08-21T00:37:45;16.60;99.90
22319;DHT22;11327;52.334;9.506;2022-08-21T00:41:09;16.60;99.90
22319;DHT22;11327;52.334;9.506;2022-08-21T00:44:30;16.60;99.90
22319;DHT22;11327;52.334;9.506;2022-08-21T00:47:52;16.60;99.90
22319;DHT22;11327;52.334;9.506;2022-08-21T00:51:28;16.50;99.90
22319;DHT22;11327;52.334;9.506;2022-08-21T00:54:47;16.50;99.90
22319;DHT22;11327;52.334;9.506;2022-08-21T00:58:11;16.50;99.90
22319;DHT22;11327;52.334;9.506;2022-08-21T01:01:33;16.50;99.90
22319;DHT22;11327;52.334;9.506;2022-08-21T01:04:54;16.40;99.90
22319;DHT22;11327;52.334;9.506;2022-08-21T01:08:16;16.40;99.90
22319;DHT22;11327;52.334;9.506;2022-08-21T01:11:38;16.30;99.90
22319;DHT22;11327;52.334;9.506;2022-08-21T01:15:01;16.30;99.90
22319;DHT22;11327;52.334;9.506;2022-08-21T01:18:23;16.20;99.90
22319;DHT22;11327;52.334;9.506;2022-08-21T01:21:44;16.20;99.90
22319;DHT22;11327;52.334;9.506;2022-08-21T01:25:07;16.20;99.90
22319;DHT22;11327;52.334;9.506;2022-08-21T01:28:31;16.20;99.90
22319;DHT22;11327;52.334;9.506;2022-08-21T01:31:53;16.10;99.90
22319;DHT22;11327;52.334;9.506;2022-08-21T01:35:16;16.10;99.90
22319;DHT22;11327;52.334;9.506;2022-08-21T01:38:38;16.10;99.90
22319;DHT22;11327;52.334;9.506;2022-08-21T01:41:59;16.10;99.90
22319;DHT22;11327;52.334;9.506;2022-08-21T01:45:20;16.10;99.90
22319;DHT22;11327;52.334;9.506;2022-08-21T01:48:42;16.00;99.90
22319;DHT22;11327;52.334;9.506;2022-08-21T01:52:04;16.00;99.90
22319;DHT22;11327;52.334;9.506;2022-08-21T01:55:25;15.90;99.90
22319;DHT22;11327;52.334;9.506;2022-08-21T01:58:47;15.90;99.90
22319;DHT22;11327;52.334;9.506;2022-08-21T02:02:08;15.90;99.90
22319;DHT22;11327;52.334;9.506;2022-08-21T02:05:29;15.80;99.90
22319;DHT22;11327;52.334;9.506;2022-08-21T02:08:51;15.70;99.90
22319;DHT22;11327;52.334;9.506;2022-08-21T02:12:12;15.70;99.90
22319;DHT22;11327;52.334;9.506;2022-08-21T02:15:34;15.60;99.90
22319;DHT22;11327;52.334;9.506;2022-08-21T02:18:55;15.60;99.90
22319;DHT22;11327;52.334;9.506;2022-08-21T02:22:16;15.60;99.90
22319;DHT22;11327;52.334;9.506;2022-08-21T02:25:37;15.60;99.90
22319;DHT22;11327;52.334;9.506;2022-08-21T02:28:59;15.60;99.90
22319;DHT22;11327;52.334;9.506;2022-08-21T02:32:20;15.50;99.90
22319;DHT22;11327;52.334;9.506;2022-08-21T02:35:44;15.50;99.90
22319;DHT22;11327;52.334;9.506;2022-08-21T02:39:05;15.40;99.90
22319;DHT22;11327;52.334;9.506;2022-08-21T02:42:26;15.30;99.90
22319;DHT22;11327;52.334;9.506;2022-08-21T02:45:49;15.30;99.90
22319;DHT22;11327;52.334;9.506;2022-08-21T02:49:10;15.30;99.90
22319;DHT22;11327;52.334;9.506;2022-08-21T02:52:31;15.30;99.90
22319;DHT22;11327;52.334;9.506;2022-08-21T02:55:54;15.30;99.90
22319;DHT22;11327;52.334;9.506;2022-08-21T02:59:16;15.30;99.90
22319;DHT22;11327;52.334;9.506;2022-08-21T03:02:39;15.20;99.90
22319;DHT22;11327;52.334;9.506;2022-08-21T03:06:00;15.20;99.90
22319;DHT22;11327;52.334;9.506;2022-08-21T03:09:21;15.30;99.90
22319;DHT22;11327;52.334;9.506;2022-08-21T03:12:42;15.20;99.90
22319;DHT22;11327;52.334;9.506;2022-08-21T03:16:04;15.30;99.90
22319;DHT22;11327;52.334;9.506;2022-08-21T03:19:26;15.30;99.90
22319;DHT22;11327;52.334;9.506;2022-08-21T03:22:48;15.30;99.90
22319;DHT22;11327;52.334;9.506;2022-08-21T03:26:09;15.30;99.90
22319;DHT22;11327;52.334;9.506;2022-08-21T03:29:31;15.40;99.90
22319;DHT22;11327;52.334;9.506;2022-08-21T03:32:52;15.40;99.90
22319;DHT22;11327;52.334;9.506;2022-08-21T03:36:15;15.40;99.90
22319;DHT22;11327;52.334;9.506;2022-08-21T03:39:36;15.50;99.90
22319;DHT22;11327;52.334;9.506;2022-08-21T03:42:57;15.50;99.90
22319;DHT22;11327;52.334;9.506;2022-08-21T03:46:19;15.50;99.90
22319;DHT22;11327;52.334;9.506;2022-08-21T03:49:40;15.50;99.90
22319;DHT22;11327;52.334;9.506;2022-08-21T03:53:02;15.50;99.90
22319;DHT22;11327;52.334;9.506;2022-08-21T03:56:23;15.50;99.90
22319;DHT22;11327;52.334;9.506;2022-08-21T03:59:44;15.40;99.90
22319;DHT22;11327;52.334;9.506;2022-08-21T04:03:05;15.50;99.90
22319;DHT22;11327;52.334;9.506;2022-08-21T04:06:27;15.40;99.90
22319;DHT22;11327;52.334;9.506;2022-08-21T04:09:48;15.40;99.90
22319;DHT22;11327;52.334;9.506;2022-08-21T04:13:09;15.50;99.90
22319;DHT22;11327;52.334;9.506;2022-08-21T04:16:30;15.40;99.90
22319;DHT22;11327;52.334;9.506;2022-08-21T04:19:51;15.50;99.90
22319;DHT22;11327;52.334;9.506;2022-08-21T04:23:12;15.50;99.90
22319;DHT22;11327;52.334;9.506;2022-08-21T04:26:35;15.60;99.90
22319;DHT22;11327;52.334;9.506;2022-08-21T04:29:57;15.60;99.90
22319;DHT22;11327;52.334;9.506;2022-08-21T04:33:19;15.70;99.90
22319;DHT22;11327;52.334;9.506;2022-08-21T04:36:40;15.70;99.90
22319;DHT22;11327;52.334;9.506;2022-08-21T04:40:02;15.80;99.90
22319;DHT22;11327;52.334;9.506;2022-08-21T04:43:24;15.80;99.90
22319;DHT22;11327;52.334;9.506;2022-08-21T04:46:45;15.90;99.90
22319;DHT22;11327;52.334;9.506;2022-08-21T04:50:07;15.90;99.90
22319;DHT22;11327;52.334;9.506;2022-08-21T04:53:31;15.90;99.90
22319;DHT22;11327;52.334;9.506;2022-08-21T04:56:59;16.00;99.90
22319;DHT22;11327;52.334;9.506;2022-08-21T05:00:22;16.00;99.90
22319;DHT22;11327;52.334;9.506;2022-08-21T05:03:47;16.10;99.90
22319;DHT22;11327;52.334;9.506;2022-08-21T05:07:12;16.10;99.90
22319;DHT22;11327;52.334;9.506;2022-08-21T05:10:35;16.10;99.90
22319;DHT22;11327;52.334;9.506;2022-08-21T05:13:56;16.20;99.90
22319;DHT22;11327;52.334;9.506;2022-08-21T05:17:18;16.20;99.90
22319;DHT22;11327;52.334;9.506;2022-08-21T05:20:39;16.20;99.90
22319;DHT22;11327;52.334;9.506;2022-08-21T05:24:00;16.30;99.90
22319;DHT22;11327;52.334;9.506;2022-08-21T05:27:21;16.30;99.90
22319;DHT22;11327;52.334;9.506;2022-08-21T05:30:42;16.40;99.90
22319;DHT22;11327;52.334;9.506;2022-08-21T05:34:03;16.40;99.90
22319;DHT22;11327;52.334;9.506;2022-08-21T05:37:24;16.40;99.90
22319;DHT22;11327;52.334;9.506;2022-08-21T05:40:46;16.30;99.90
22319;DHT22;11327;52.334;9.506;2022-08-21T05:44:07;16.40;99.90
22319;DHT22;11327;52.334;9.506;2022-08-21T05:47:28;16.30;99.90
22319;DHT22;11327;52.334;9.506;2022-08-21T05:50:51;16.30;99.90
22319;DHT22;11327;52.334;9.506;2022-08-21T05:54:12;16.40;99.90
22319;DHT22;11327;52.334;9.506;2022-08-21T05:57:33;16.40;99.90
22319;DHT22;11327;52.334;9.506;2022-08-21T06:00:54;16.50;99.90
22319;DHT22;11327;52.334;9.506;2022-08-21T06:04:15;16.40;99.90
22319;DHT22;11327;52.334;9.506;2022-08-21T06:07:36;16.40;99.90
22319;DHT22;11327;52.334;9.506;2022-08-21T06:10:59;16.40;99.90
22319;DHT22;11327;52.334;9.506;2022-08-21T06:14:20;16.40;99.90
22319;DHT22;11327;52.334;9.506;2022-08-21T06:17:41;16.50;99.90
22319;DHT22;11327;52.334;9.506;2022-08-21T06:21:03;16.50;99.90
22319;DHT22;11327;52.334;9.506;2022-08-21T06:24:25;16.60;99.90
22319;DHT22;11327;52.334;9.506;2022-08-21T06:27:46;16.60;99.90
22319;DHT22;11327;52.334;9.506;2022-08-21T06:31:22;16.70;99.90
22319;DHT22;11327;52.334;9.506;2022-08-21T06:34:39;16.80;99.90
22319;DHT22;11327;52.334;9.506;2022-08-21T06:38:01;17.00;99.90
22319;DHT22;11327;52.334;9.506;2022-08-21T06:41:22;17.20;99.90
22319;DHT22;11327;52.334;9.506;2022-08-21T06:44:43;17.40;99.90
22319;DHT22;11327;52.334;9.506;2022-08-21T06:48:05;17.50;99.90
22319;DHT22;11327;52.334;9.506;2022-08-21T06:51:27;17.70;99.90
22319;DHT22;11327;52.334;9.506;2022-08-21T06:54:48;17.90;99.90
22319;DHT22;11327;52.334;9.506;2022-08-21T06:58:10;18.10;99.90
22319;DHT22;11327;52.334;9.506;2022-08-21T07:01:32;18.30;99.90
22319;DHT22;11327;52.334;9.506;2022-08-21T07:04:53;18.50;99.90
22319;DHT22;11327;52.334;9.506;2022-08-21T07:08:14;18.80;99.90
22319;DHT22;11327;52.334;9.506;2022-08-21T07:11:35;19.10;99.90
22319;DHT22;11327;52.334;9.506;2022-08-21T07:14:57;19.40;99.90
22319;DHT22;11327;52.334;9.506;2022-08-21T07:18:18;19.60;99.90
22319;DHT22;11327;52.334;9.506;2022-08-21T07:21:39;19.80;99.90
22319;DHT22;11327;52.334;9.506;2022-08-21T07:25:00;20.00;99.90
22319;DHT22;11327;52.334;9.506;2022-08-21T07:28:21;20.20;99.90
22319;DHT22;11327;52.334;9.506;2022-08-21T07:31:43;20.30;99.90
22319;DHT22;11327;52.334;9.506;2022-08-21T07:35:04;20.50;99.90
22319;DHT22;11327;52.334;9.506;2022-08-21T07:38:25;20.70;99.90
22319;DHT22;11327;52.334;9.506;2022-08-21T07:41:47;20.70;99.90
22319;DHT22;11327;52.334;9.506;2022-08-21T07:45:09;20.80;99.90
22319;DHT22;11327;52.334;9.506;2022-08-21T07:48:30;20.90;99.90
22319;DHT22;11327;52.334;9.506;2022-08-21T07:51:51;21.10;99.90
22319;DHT22;11327;52.334;9.506;2022-08-21T07:55:16;21.20;99.90
22319;DHT22;11327;52.334;9.506;2022-08-21T07:58:37;21.40;99.90
22319;DHT22;11327;52.334;9.506;2022-08-21T08:01:58;21.60;99.90
22319;DHT22;11327;52.334;9.506;2022-08-21T08:05:25;21.80;99.90
22319;DHT22;11327;52.334;9.506;2022-08-21T08:08:47;21.90;99.90
22319;DHT22;11327;52.334;9.506;2022-08-21T08:12:08;21.90;99.90
22319;DHT22;11327;52.334;9.506;2022-08-21T08:15:29;22.10;99.90
22319;DHT22;11327;52.334;9.506;2022-08-21T08:18:50;22.20;99.90
22319;DHT22;11327;52.334;9.506;2022-08-21T08:22:13;22.30;99.90
22319;DHT22;11327;52.334;9.506;2022-08-21T08:25:35;22.40;99.90
22319;DHT22;11327;52.334;9.506;2022-08-21T08:28:56;22.60;99.90
22319;DHT22;11327;52.334;9.506;2022-08-21T08:32:17;22.70;99.90
22319;DHT22;11327;52.334;9.506;2022-08-21T08:35:41;22.90;99.90
22319;DHT22;11327;52.334;9.506;2022-08-21T08:39:04;22.90;99.90
22319;DHT22;11327;52.334;9.506;2022-08-21T08:42:29;23.10;99.90
22319;DHT22;11327;52.334;9.506;2022-08-21T08:45:53;23.20;99.90
22319;DHT22;11327;52.334;9.506;2022-08-21T08:49:19;23.30;99.90
22319;DHT22;11327;52.334;9.506;2022-08-21T08:52:48;23.30;99.90
22319;DHT22;11327;52.334;9.506;2022-08-21T08:56:11;23.40;99.90
22319;DHT22;11327;52.334;9.506;2022-08-21T08:59:41;23.60;99.90
22319;DHT22;11327;52.334;9.506;2022-08-21T09:03:03;23.60;99.90
22319;DHT22;11327;52.334;9.506;2022-08-21T09:10:45;23.80;99.90
22319;DHT22;11327;52.334;9.506;2022-08-21T09:25:04;24.20;99.90
22319;DHT22;11327;52.334;9.506;2022-08-21T09:28:23;24.40;99.90
22319;DHT22;11327;52.334;9.506;2022-08-21T09:31:44;24.50;99.90
22319;DHT22;11327;52.334;9.506;2022-08-21T09:38:35;24.60;99.90
22319;DHT22;11327;52.334;9.506;2022-08-21T09:42:04;24.70;99.90
22319;DHT22;11327;52.334;9.506;2022-08-21T09:45:25;24.90;99.90
22319;DHT22;11327;52.334;9.506;2022-08-21T09:48:51;24.90;99.90
22319;DHT22;11327;52.334;9.506;2022-08-21T09:52:21;25.10;99.90
22319;DHT22;11327;52.334;9.506;2022-08-21T09:56:00;25.10;99.90
22319;DHT22;11327;52.334;9.506;2022-08-21T09:59:40;25.00;99.90
22319;DHT22;11327;52.334;9.506;2022-08-21T10:06:35;25.30;99.90
22319;DHT22;11327;52.334;9.506;2022-08-21T10:10:05;25.60;99.90
22319;DHT22;11327;52.334;9.506;2022-08-21T10:24:33;26.00;99.90
22319;DHT22;11327;52.334;9.506;2022-08-21T10:53:36;26.70;99.90
22319;DHT22;11327;52.334;9.506;2022-08-21T10:56:59;26.70;99.50
22319;DHT22;11327;52.334;9.506;2022-08-21T11:00:22;26.80;99.10
22319;DHT22;11327;52.334;9.506;2022-08-21T11:04:00;27.00;99.90
22319;DHT22;11327;52.334;9.506;2022-08-21T11:07:21;27.00;99.90
22319;DHT22;11327;52.334;9.506;2022-08-21T11:10:45;27.20;99.30
22319;DHT22;11327;52.334;9.506;2022-08-21T11:14:25;27.20;98.80
22319;DHT22;11327;52.334;9.506;2022-08-21T11:17:56;27.30;98.20
22319;DHT22;11327;52.334;9.506;2022-08-21T11:28:37;27.80;97.00
22319;DHT22;11327;52.334;9.506;2022-08-21T11:35:51;28.00;98.40
22319;DHT22;11327;52.334;9.506;2022-08-21T11:39:17;28.00;95.20
22319;DHT22;11327;52.334;9.506;2022-08-21T11:42:48;27.70;95.00
22319;DHT22;11327;52.334;9.506;2022-08-21T11:46:23;27.70;98.00
22319;DHT22;11327;52.334;9.506;2022-08-21T11:56:46;27.80;95.40
22319;DHT22;11327;52.334;9.506;2022-08-21T12:00:16;28.00;97.20
22319;DHT22;11327;52.334;9.506;2022-08-21T12:03:39;28.30;97.00
22319;DHT22;11327;52.334;9.506;2022-08-21T12:07:13;28.20;93.90
22319;DHT22;11327;52.334;9.506;2022-08-21T12:10:37;27.90;93.20
22319;DHT22;11327;52.334;9.506;2022-08-21T12:17:36;28.10;93.90
22319;DHT22;11327;52.334;9.506;2022-08-21T12:24:36;28.50;95.40
22319;DHT22;11327;52.334;9.506;2022-08-21T12:28:03;28.50;91.20
22319;DHT22;11327;52.334;9.506;2022-08-21T12:31:26;28.50;93.40
22319;DHT22;11327;52.334;9.506;2022-08-21T12:35:09;28.50;92.10
22319;DHT22;11327;52.334;9.506;2022-08-21T12:38:33;28.50;93.00
22319;DHT22;11327;52.334;9.506;2022-08-21T12:42:11;28.70;93.10
22319;DHT22;11327;52.334;9.506;2022-08-21T12:45:38;28.40;92.10
22319;DHT22;11327;52.334;9.506;2022-08-21T12:49:06;28.50;92.20
22319;DHT22;11327;52.334;9.506;2022-08-21T12:52:30;28.80;92.30
22319;DHT22;11327;52.334;9.506;2022-08-21T12:55:51;28.90;91.80
22319;DHT22;11327;52.334;9.506;2022-08-21T12:59:12;28.90;90.20
22319;DHT22;11327;52.334;9.506;2022-08-21T13:02:38;28.80;89.40
22319;DHT22;11327;52.334;9.506;2022-08-21T13:06:02;28.80;90.40
22319;DHT22;11327;52.334;9.506;2022-08-21T13:09:27;28.90;91.00
22319;DHT22;11327;52.334;9.506;2022-08-21T13:12:48;28.80;87.60
22319;DHT22;11327;52.334;9.506;2022-08-21T13:16:09;28.60;89.50
22319;DHT22;11327;52.334;9.506;2022-08-21T13:19:31;28.60;87.10
22319;DHT22;11327;52.334;9.506;2022-08-21T13:22:52;28.70;86.20
22319;DHT22;11327;52.334;9.506;2022-08-21T13:26:19;28.60;84.10
22319;DHT22;11327;52.334;9.506;2022-08-21T13:29:40;28.30;86.50
22319;DHT22;11327;52.334;9.506;2022-08-21T13:33:04;28.20;87.20
22319;DHT22;11327;52.334;9.506;2022-08-21T13:36:29;28.20;85.70
22319;DHT22;11327;52.334;9.506;2022-08-21T13:39:53;28.30;86.40
22319;DHT22;11327;52.334;9.506;2022-08-21T13:43:17;28.30;90.00
22319;DHT22;11327;52.334;9.506;2022-08-21T13:46:39;28.20;89.20
22319;DHT22;11327;52.334;9.506;2022-08-21T13:50:00;28.10;90.60
22319;DHT22;11327;52.334;9.506;2022-08-21T13:53:29;27.80;88.80
22319;DHT22;11327;52.334;9.506;2022-08-21T13:56:46;27.70;88.30
22319;DHT22;11327;52.334;9.506;2022-08-21T14:03:43;27.90;90.70
22319;DHT22;11327;52.334;9.506;2022-08-21T14:07:16;27.90;90.30
22319;DHT22;11327;52.334;9.506;2022-08-21T14:10:49;28.00;91.00
22319;DHT22;11327;52.334;9.506;2022-08-21T14:14:23;28.10;88.20
22319;DHT22;11327;52.334;9.506;2022-08-21T14:17:46;28.10;87.90
22319;DHT22;11327;52.334;9.506;2022-08-21T14:21:08;28.00;89.20
22319;DHT22;11327;52.334;9.506;2022-08-21T14:24:30;27.70;91.20
22319;DHT22;11327;52.334;9.506;2022-08-21T14:28:01;27.80;89.70
22319;DHT22;11327;52.334;9.506;2022-08-21T14:31:19;27.70;88.10
22319;DHT22;11327;52.334;9.506;2022-08-21T14:34:41;27.80;88.90
22319;DHT22;11327;52.334;9.506;2022-08-21T14:38:02;27.90;89.60
22319;DHT22;11327;52.334;9.506;2022-08-21T14:41:26;27.90;89.30
22319;DHT22;11327;52.334;9.506;2022-08-21T14:44:48;27.80;89.10
22319;DHT22;11327;52.334;9.506;2022-08-21T14:48:09;27.70;88.10
22319;DHT22;11327;52.334;9.506;2022-08-21T14:51:30;27.60;89.70
22319;DHT22;11327;52.334;9.506;2022-08-21T14:54:51;27.50;89.70
22319;DHT22;11327;52.334;9.506;2022-08-21T14:58:12;27.70;91.60
22319;DHT22;11327;52.334;9.506;2022-08-21T15:01:36;27.80;90.20
22319;DHT22;11327;52.334;9.506;2022-08-21T15:04:58;27.80;85.80
22319;DHT22;11327;52.334;9.506;2022-08-21T15:08:19;27.90;90.10
22319;DHT22;11327;52.334;9.506;2022-08-21T15:11:40;28.00;90.30
22319;DHT22;11327;52.334;9.506;2022-08-21T15:15:01;28.20;87.90
22319;DHT22;11327;52.334;9.506;2022-08-21T15:18:28;28.20;90.10
22319;DHT22;11327;52.334;9.506;2022-08-21T15:21:47;28.20;86.20
22319;DHT22;11327;52.334;9.506;2022-08-21T15:25:08;28.00;86.20
22319;DHT22;11327;52.334;9.506;2022-08-21T15:28:29;28.00;87.50
22319;DHT22;11327;52.334;9.506;2022-08-21T15:31:56;28.10;87.60
22319;DHT22;11327;52.334;9.506;2022-08-21T15:35:18;28.20;86.90
22319;DHT22;11327;52.334;9.506;2022-08-21T15:38:39;28.10;86.40
22319;DHT22;11327;52.334;9.506;2022-08-21T15:42:00;27.80;84.70
22319;DHT22;11327;52.334;9.506;2022-08-21T15:45:21;27.50;82.60
22319;DHT22;11327;52.334;9.506;2022-08-21T15:48:43;27.20;81.60
22319;DHT22;11327;52.334;9.506;2022-08-21T15:52:04;27.10;83.60
22319;DHT22;11327;52.334;9.506;2022-08-21T15:55:25;27.10;85.20
22319;DHT22;11327;52.334;9.506;2022-08-21T15:58:46;27.20;88.20
22319;DHT22;11327;52.334;9.506;2022-08-21T16:02:17;27.30;89.60
22319;DHT22;11327;52.334;9.506;2022-08-21T16:05:34;27.30;90.20
22319;DHT22;11327;52.334;9.506;2022-08-21T16:08:55;27.20;89.60
22319;DHT22;11327;52.334;9.506;2022-08-21T16:12:22;27.10;90.40
22319;DHT22;11327;52.334;9.506;2022-08-21T16:15:41;27.10;88.90
22319;DHT22;11327;52.334;9.506;2022-08-21T16:19:02;27.20;88.60
22319;DHT22;11327;52.334;9.506;2022-08-21T16:22:26;27.10;87.40
22319;DHT22;11327;52.334;9.506;2022-08-21T16:25:48;27.00;89.10
22319;DHT22;11327;52.334;9.506;2022-08-21T16:29:09;27.00;89.50
22319;DHT22;11327;52.334;9.506;2022-08-21T16:32:30;26.90;86.90
22319;DHT22;11327;52.334;9.506;2022-08-21T16:35:52;26.80;89.90
22319;DHT22;11327;52.334;9.506;2022-08-21T16:39:13;26.80;90.30
22319;DHT22;11327;52.334;9.506;2022-08-21T16:42:34;26.80;90.70
22319;DHT22;11327;52.334;9.506;2022-08-21T16:45:56;26.70;91.00
22319;DHT22;11327;52.334;9.506;2022-08-21T16:49:18;26.50;90.90
22319;DHT22;11327;52.334;9.506;2022-08-21T16:52:39;26.30;91.80
22319;DHT22;11327;52.334;9.506;2022-08-21T16:56:00;26.10;92.60
22319;DHT22;11327;52.334;9.506;2022-08-21T16:59:21;25.90;93.10
22319;DHT22;11327;52.334;9.506;2022-08-21T17:02:45;25.70;93.30
22319;DHT22;11327;52.334;9.506;2022-08-21T17:06:07;25.70;94.00
22319;DHT22;11327;52.334;9.506;2022-08-21T17:09:29;25.50;94.80
22319;DHT22;11327;52.334;9.506;2022-08-21T17:12:55;25.30;95.20
22319;DHT22;11327;52.334;9.506;2022-08-21T17:16:17;25.20;94.70
22319;DHT22;11327;52.334;9.506;2022-08-21T17:19:37;25.10;95.40
22319;DHT22;11327;52.334;9.506;2022-08-21T17:22:59;25.00;95.70
22319;DHT22;11327;52.334;9.506;2022-08-21T17:26:20;24.90;96.60
22319;DHT22;11327;52.334;9.506;2022-08-21T17:29:41;24.80;97.30
22319;DHT22;11327;52.334;9.506;2022-08-21T17:33:02;24.70;97.50
22319;DHT22;11327;52.334;9.506;2022-08-21T17:36:25;24.60;97.70
22319;DHT22;11327;52.334;9.506;2022-08-21T17:39:46;24.60;97.60
22319;DHT22;11327;52.334;9.506;2022-08-21T17:43:09;24.50;98.30
22319;DHT22;11327;52.334;9.506;2022-08-21T17:46:30;24.50;98.60
22319;DHT22;11327;52.334;9.506;2022-08-21T17:49:51;24.30;99.10
22319;DHT22;11327;52.334;9.506;2022-08-21T17:53:12;24.30;98.90
22319;DHT22;11327;52.334;9.506;2022-08-21T17:56:38;24.20;99.20
22319;DHT22;11327;52.334;9.506;2022-08-21T17:59:57;24.20;99.80
22319;DHT22;11327;52.334;9.506;2022-08-21T18:03:20;24.10;99.90
22319;DHT22;11327;52.334;9.506;2022-08-21T18:06:42;24.00;99.90
22319;DHT22;11327;52.334;9.506;2022-08-21T18:10:07;23.90;99.90
22319;DHT22;11327;52.334;9.506;2022-08-21T18:13:30;23.80;99.90
22319;DHT22;11327;52.334;9.506;2022-08-21T18:16:52;23.70;99.90
22319;DHT22;11327;52.334;9.506;2022-08-21T18:20:14;23.60;99.90
22319;DHT22;11327;52.334;9.506;2022-08-21T18:23:35;23.60;99.90
22319;DHT22;11327;52.334;9.506;2022-08-21T18:26:57;23.50;99.90
22319;DHT22;11327;52.334;9.506;2022-08-21T18:30:19;23.50;99.90
22319;DHT22;11327;52.334;9.506;2022-08-21T18:33:40;23.30;99.90
22319;DHT22;11327;52.334;9.506;2022-08-21T18:37:02;23.30;99.90
22319;DHT22;11327;52.334;9.506;2022-08-21T18:40:24;23.20;99.90
22319;DHT22;11327;52.334;9.506;2022-08-21T18:43:45;23.10;99.90
22319;DHT22;11327;52.334;9.506;2022-08-21T18:47:09;23.00;99.90
22319;DHT22;11327;52.334;9.506;2022-08-21T18:50:32;22.90;99.90
22319;DHT22;11327;52.334;9.506;2022-08-21T18:53:53;22.80;99.90
22319;DHT22;11327;52.334;9.506;2022-08-21T18:57:17;22.80;99.90
22319;DHT22;11327;52.334;9.506;2022-08-21T19:00:41;22.70;99.90
22319;DHT22;11327;52.334;9.506;2022-08-21T19:04:05;22.60;99.90
22319;DHT22;11327;52.334;9.506;2022-08-21T19:07:26;22.50;99.90
22319;DHT22;11327;52.334;9.506;2022-08-21T19:10:49;22.40;99.90
22319;DHT22;11327;52.334;9.506;2022-08-21T19:14:12;22.30;99.90
22319;DHT22;11327;52.334;9.506;2022-08-21T19:17:34;22.20;99.90
22319;DHT22;11327;52.334;9.506;2022-08-21T19:20:56;22.20;99.90
22319;DHT22;11327;52.334;9.506;2022-08-21T19:24:17;22.10;99.90
22319;DHT22;11327;52.334;9.506;2022-08-21T19:27:38;22.00;99.90
22319;DHT22;11327;52.334;9.506;2022-08-21T19:31:04;22.00;99.90
22319;DHT22;11327;52.334;9.506;2022-08-21T19:34:27;21.80;99.90
22319;DHT22;11327;52.334;9.506;2022-08-21T19:37:48;21.70;99.90
22319;DHT22;11327;52.334;9.506;2022-08-21T19:41:12;21.60;99.90
22319;DHT22;11327;52.334;9.506;2022-08-21T19:44:35;21.50;99.90
22319;DHT22;11327;52.334;9.506;2022-08-21T19:47:56;21.40;99.90
22319;DHT22;11327;52.334;9.506;2022-08-21T19:51:17;21.30;99.90
22319;DHT22;11327;52.334;9.506;2022-08-21T19:54:39;21.20;99.90
22319;DHT22;11327;52.334;9.506;2022-08-21T19:58:00;21.10;99.90
22319;DHT22;11327;52.334;9.506;2022-08-21T20:01:23;21.00;99.90
22319;DHT22;11327;52.334;9.506;2022-08-21T20:04:46;20.80;99.90
22319;DHT22;11327;52.334;9.506;2022-08-21T20:08:07;20.70;99.90
22319;DHT22;11327;52.334;9.506;2022-08-21T20:11:38;20.60;99.90
22319;DHT22;11327;52.334;9.506;2022-08-21T20:14:55;20.40;99.90
22319;DHT22;11327;52.334;9.506;2022-08-21T20:18:17;20.30;99.90
22319;DHT22;11327;52.334;9.506;2022-08-21T20:21:38;20.20;99.90
22319;DHT22;11327;52.334;9.506;2022-08-21T20:24:59;20.20;99.90
22319;DHT22;11327;52.334;9.506;2022-08-21T20:28:20;20.10;99.90
22319;DHT22;11327;52.334;9.506;2022-08-21T20:31:41;20.10;99.90
22319;DHT22;11327;52.334;9.506;2022-08-21T20:35:04;20.10;99.90
22319;DHT22;11327;52.334;9.506;2022-08-21T20:38:25;20.00;99.90
22319;DHT22;11327;52.334;9.506;2022-08-21T20:41:46;20.00;99.90
22319;DHT22;11327;52.334;9.506;2022-08-21T20:45:08;19.90;99.90
22319;DHT22;11327;52.334;9.506;2022-08-21T20:48:34;19.90;99.90
22319;DHT22;11327;52.334;9.506;2022-08-21T20:51:56;19.80;99.90
22319;DHT22;11327;52.334;9.506;2022-08-21T20:55:21;19.70;99.90
22319;DHT22;11327;52.334;9.506;2022-08-21T20:58:54;19.60;99.90
22319;DHT22;11327;52.334;9.506;2022-08-21T21:06:04;19.40;99.90
22319;DHT22;11327;52.334;9.506;2022-08-21T21:09:36;19.50;99.90
22319;DHT22;11327;52.334;9.506;2022-08-21T21:13:01;19.40;99.90
22319;DHT22;11327;52.334;9.506;2022-08-21T21:16:28;19.40;99.90
22319;DHT22;11327;52.334;9.506;2022-08-21T21:23:34;19.30;99.90
22319;DHT22;11327;52.334;9.506;2022-08-21T21:27:01;19.30;99.90
22319;DHT22;11327;52.334;9.506;2022-08-21T21:30:28;19.20;99.90
22319;DHT22;11327;52.334;9.506;2022-08-21T21:33:46;19.20;99.90
22319;DHT22;11327;52.334;9.506;2022-08-21T21:37:19;19.10;99.90
22319;DHT22;11327;52.334;9.506;2022-08-21T21:40:46;19.10;99.90
22319;DHT22;11327;52.334;9.506;2022-08-21T21:48:23;18.90;99.90
22319;DHT22;11327;52.334;9.506;2022-08-21T21:55:39;18.80;99.90
22319;DHT22;11327;52.334;9.506;2022-08-21T22:06:24;18.60;99.90
22319;DHT22;11327;52.334;9.506;2022-08-21T22:13:16;18.50;99.90
22319;DHT22;11327;52.334;9.506;2022-08-21T22:16:37;18.50;99.90
22319;DHT22;11327;52.334;9.506;2022-08-21T22:20:02;18.40;99.90
22319;DHT22;11327;52.334;9.506;2022-08-21T22:23:27;18.40;99.90
22319;DHT22;11327;52.334;9.506;2022-08-21T22:26:51;18.30;99.90
22319;DHT22;11327;52.334;9.506;2022-08-21T22:30:16;18.20;99.90
22319;DHT22;11327;52.334;9.506;2022-08-21T22:33:38;18.20;99.90
22319;DHT22;11327;52.334;9.506;2022-08-21T22:37:02;18.10;99.90
22319;DHT22;11327;52.334;9.506;2022-08-21T22:40:30;18.10;99.90
22319;DHT22;11327;52.334;9.506;2022-08-21T22:44:16;18.00;99.90
22319;DHT22;11327;52.334;9.506;2022-08-21T22:47:21;18.10;99.90
22319;DHT22;11327;52.334;9.506;2022-08-21T22:50:42;18.00;99.90
22319;DHT22;11327;52.334;9.506;2022-08-21T22:54:03;18.00;99.90
22319;DHT22;11327;52.334;9.506;2022-08-21T22:57:31;18.00;99.90
22319;DHT22;11327;52.334;9.506;2022-08-21T23:04:23;18.00;99.90
22319;DHT22;11327;52.334;9.506;2022-08-21T23:07:45;17.90;99.90
22319;DHT22;11327;52.334;9.506;2022-08-21T23:11:16;17.90;99.90
22319;DHT22;11327;52.334;9.506;2022-08-21T23:14:39;17.90;99.90
22319;DHT22;11327;52.334;9.506;2022-08-21T23:29:19;17.60;99.90